• Join FlightAware (Why Join?)
  • Login
  • US Flag 
06:42AM EST


 

Airport Tracker/Info


-or-


 

Live Flight TrackerFlight Track Log ✈ N825ST ✈ 03-Jul-2014 ✈ KDZB - KDAL

Flight Track Log - Related Links

Times and Time Zones

All times are in EDT time to prevent confusion due to time zone crossing. See the N825ST flight status page for this flight to view local times or setup timezone preferences in your user account.

Time Position Orientation Groundspeed Altitude Reporting Facility
EDT Latitude Longitude Course Direction KTS MPH feet Rate Location/Type
08:09PM 30.6589 -98.3214 19° North 193 222 5,300  Level Houston Center
08:10PM 30.7128 -98.2886 28° Northeast 205 236 5,900 240 Climbing Houston Center
08:11PM 30.7886 -98.2492 24° Northeast 227 261 5,900  Level Houston Center
08:12PM 30.8575 -98.2158 23° Northeast 246 283 5,900  Level Houston Center
08:13PM 30.9100 -98.1903 23° Northeast 253 291 6,000 1,320 Climbing Fort Worth Center
08:14PM 30.9686 -98.1611 23° Northeast 245 282 8,500 2,340 Climbing Fort Worth Center
08:15PM 31.0200 -98.1350 24° Northeast 187 215 10,900 2,040 Climbing Fort Worth Center
08:16PM 31.0661 -98.1108 24° Northeast 183 211 12,800 1,860 Climbing Fort Worth Center
08:17PM 31.1103 -98.0883 24° Northeast 176 203 14,800 1,800 Climbing Fort Worth Center
08:18PM 31.1569 -98.0689 20° North 174 200 16,600 1,020 Climbing Fort Worth Center
08:19PM 31.2094 -98.0383 26° Northeast 211 243 17,000 120 Climbing Fort Worth Center
08:21PM 31.3353 -97.9742 24° Northeast 245 282 17,000 -240 Level Fort Worth Center
08:22PM 31.4097 -97.9367 23° Northeast 242 278 16,300 -960 Descending Fort Worth Center
08:23PM 31.4797 -97.9017 23° Northeast 267 307 15,100 -1,260 Descending Fort Worth Center
08:24PM 31.5489 -97.8658 24° Northeast 273 314 13,800 -1,020 Descending Fort Worth Center
08:25PM 31.6197 -97.8281 24° Northeast 276 318 13,000 -420 Descending Fort Worth Center
08:26PM 31.6875 -97.7950 23° Northeast 268 308 13,000  Level Fort Worth Center
08:27PM 31.7536 -97.7597 24° Northeast 265 305 13,000  Level Fort Worth Center
08:28PM 31.8322 -97.7189 24° Northeast 258 297 13,000  Level Fort Worth Center
08:29PM 31.8981 -97.6850 24° Northeast 258 297 13,000 -600 Level Fort Worth Center
08:31PM 32.0403 -97.6125 23° Northeast 275 316 11,200 -1,080 Descending Fort Worth Center
08:32PM 32.1167 -97.5725 24° Northeast 279 321 9,800 -1,380 Descending Fort Worth Center
08:34PM 32.1889 -97.5356 23° Northeast 281 323 8,400 -1,380 Descending Fort Worth Center
08:35PM 32.2589 -97.4969 25° Northeast 279 321 7,000 -1,500 Descending Fort Worth Center
08:36PM 32.3294 -97.4514 29° Northeast 266 306 5,400 -1,020 Descending Fort Worth Center
08:37PM 32.3567 -97.3789 66° East 244 281 5,000 -300 Descending Fort Worth Center
08:39PM 32.3814 -97.2164 80° East 241 277 4,500 -360 Descending Fort Worth Center
08:40PM 32.3919 -97.1250 82° East 256 295 4,000 -300 Descending Fort Worth Center
08:41PM 32.4047 -97.0469 79° East 247 284 4,000  Level Fort Worth Center
08:42PM 32.4203 -96.9700 77° East 242 278 4,000  Level Fort Worth Center
08:43PM 32.4783 -96.9161 38° Northeast 246 283 4,000 -300 Level Fort Worth Center
08:45PM 32.5667 -96.8167 43° Northeast 251 289 3,300 -360 Descending Dallas / Fort Worth TRACON
08:46PM 32.6333 -96.8000 12° North 248 285 3,000 -120 Descending Dallas / Fort Worth TRACON
08:48PM 32.7500 -96.7833 North 172 198 3,000 -420 Level Dallas / Fort Worth TRACON
08:49PM 32.7833 -96.7833 360° North 178 205 1,900 -1,080 Descending Dallas / Fort Worth TRACON
08:50PM 32.8167 -96.8167 320° Northwest 154 177 1,000 -900 Descending Dallas / Fort Worth TRACON